Historyczne dane pomiarowe

Dodano dane terminowe – wersja testowa.

Dane z okresu 1951-2019

Wersja bazy: 1.34 [2019-03-16, lista zmian], aktualizacja planowana na 2019-04-15

Dane meteo z obszaru Polski uzyskane na podstawie danych udostępnionych przez Instytut Meteorologii i Gospodarki Wodnej – Państwowy Instytut Badawczy.

 

Wybierz Datę:    

       

TemperaturaWilgotnośćWiatrCiśnienieOpadyŚniegCzas trwania zjawisk
 Stacja t tx tn tng RH VA  wxwx mslp ppp RRR   cm mm wxwxwxwxwxwxwx
1983-08-14 15.1 20.4 9.4 6.6 62.0- 1.0 4.3---- 0.0------------
1983-08-13 15.0 19.9 13.2 13.5 80.8- 5.3 7.7---- 1.7------------
1983-08-12 19.4 25.7 13.9 11.7 62.3- 3.0 4.7---- 4.7------------
1983-08-11 20.7 27.9 12.9 10.7 61.0- 1.0 0.0---- 0.0------------
1983-08-10 20.8 26.9 12.8 11.4 57.5- 0.3 1.0---- 0.0------------
1983-08-09 19.7 27.0 13.6 12.6 64.3- 3.7 0.3---- 0.0------------
1983-08-08 20.4 26.7 15.9 15.0 79.5- 6.0 2.3---- 6.8------------
1983-08-07 19.0 25.2 11.5 9.8 69.5- 5.0 4.3---- 0.0------------
1983-08-06 17.0 21.4 10.9 10.8 72.0- 2.7 1.3---- 0.0------------
1983-08-05 14.9 19.4 10.9 7.8 65.8- 5.7 1.3---- 0.0------------
1983-08-04 14.1 17.2 12.9 13.9 94.3- 8.0 2.0---- 3.5------------
1983-08-03 15.8 19.0 14.0 14.5 98.0- 8.0 4.0---- 11.1------------
1983-08-02 21.8 27.6 18.0 17.3 79.5- 4.7 4.3---- 8.9------------
1983-08-01 23.9 31.1 12.4 9.0 41.3- 0.7 5.0---- 0.0------------
1983-07-31 19.0 26.0 10.2 6.5 49.8- 0.0 2.0---- 0.0------------
1983-07-30 17.4 20.4 15.2 14.6 68.0- 7.0 7.3---- 0.0------------
1983-07-29 18.4 24.9 10.5 9.1 69.3- 4.7 6.0---- 0.7------------
1983-07-28 23.1 29.6 18.2 15.1 63.0- 3.7 6.0---- 0.0------------
1983-07-27 25.2 33.4 13.5 11.4 44.8- 1.7 1.0---- 0.0------------
1983-07-26 21.4 30.1 10.5 7.5 50.0- 0.0 3.0---- 0.0------------
1983-07-25 18.0 25.6 8.2 5.5 53.3- 1.7 3.7---- 0.0------------
1983-07-24 16.8 20.4 13.0 10.8 84.3- 6.3 1.7---- 0.0------------
1983-07-23 18.7 24.4 13.2 9.6 61.8- 4.7 4.3---- 0.0------------
1983-07-22 15.7 20.1 11.2 8.5 78.3- 6.7 5.3---- 0.0------------
1983-07-21 14.5 19.4 9.3 8.1 56.0- 1.0 7.7---- 0.0------------
1983-07-20 14.6 22.0 11.3 12.8 68.5- 4.3 6.7---- 6.9------------
1983-07-19 21.8 29.6 18.2 17.8 62.0- 5.3 4.3---- 0.0------------
1983-07-18 25.0 32.9 13.7 10.5 43.0- 2.0 1.3---- 0.0------------
1983-07-17 18.6 25.0 11.6 8.6 56.0- 0.0 1.3---- 0.0------------
1983-07-16 21.6 26.1 16.8 12.0 78.3- 6.0 4.0---- 11.4------------
1983-07-15 20.4 27.7 10.6 5.9 43.0- 2.0 2.7---- 0.0------------
1983-07-14 22.1 26.0 17.2 16.6 47.3- 3.3 5.3---- 0.0------------
1983-07-13 22.6 27.5 16.7 15.1 70.8- 2.0 4.3---- 0.0------------
1983-07-12 23.9 29.7 16.7 14.6 55.5- 4.0 2.7---- 0.0------------
1983-07-11 22.2 30.3 13.2 15.9 51.0- 4.3 5.3---- 0.0------------
1983-07-10 22.9 30.9 12.0 9.2 42.8- 3.7 3.7---- 0.0------------
1983-07-09 21.3 28.6 10.4 8.1 47.0- 4.0 3.7---- 0.0------------
1983-07-08 20.0 27.1 8.6 9.2 48.5- 0.0 4.7---- 0.0------------
1983-07-07 21.6 27.5 14.6 13.7 43.5- 0.0 4.0---- 0.0------------
1983-07-06 22.9 28.1 12.5 9.4 56.3- 0.3 1.0---- 0.0------------
1983-07-05 19.3 25.6 8.5 6.4 60.8- 0.3 2.0---- 0.0------------
1983-07-04 20.8 26.1 13.5 9.5 66.8- 0.7 3.3---- 0.0------------
1983-07-03 19.6 24.8 10.2 5.9 63.8- 0.3 1.0---- 0.0------------
1983-07-02 18.6 22.5 12.2 12.6 63.8- 2.0 3.3---- 0.0------------
1983-07-01 20.3 26.9 14.5 10.0 73.8- 3.0 4.7---- 0.0------------
1983-06-30 20.5 24.5 16.9 8.5 64.5- 3.7 4.7---- 0.0------------
1983-06-29 14.8 20.0 9.7 5.5 70.8- 4.0 2.3---- 0.0------------
1983-06-28 15.2 18.6 14.2 12.9 75.8- 5.0 5.3---- 0.0------------
1983-06-27 19.1 23.6 16.6 11.3 87.3- 6.7 1.3---- 10.0------------
1983-06-26 18.6 24.5 11.1 6.5 65.3- 0.0 2.0---- 0.0------------
1983-06-25 20.9 27.2 15.3 9.2 70.0- 2.3 3.0---- 0.0------------
1983-06-24 20.3 28.6 12.4 4.4 59.8- 0.0 0.3---- 0.0------------
1983-06-23 16.6 23.2 4.6 1.7 65.5- 0.0 0.3---- 0.0------------
1983-06-22 14.1 22.2 7.5 5.2 64.0- 0.0 2.0---- 0.0------------
1983-06-21 17.2 25.5 10.8 9.2 71.8- 0.0 3.7---- 0.0------------
1983-06-20 18.3 24.9 11.8 8.0 63.3- 0.0 1.7---- 0.0------------
1983-06-19 16.6 22.5 12.0 10.0 75.5- 1.7 3.3---- 0.0------------
1983-06-18 13.3 15.9 11.2 10.5 90.5- 7.3 3.7---- 0.0------------
1983-06-17 13.8 17.4 9.1 6.9 81.8- 5.7 5.0---- 0.0------------
1983-06-16 14.3 18.7 9.8 9.5 64.8- 6.3 5.0---- 0.0------------
325.0 ms

 

Źródłem pochodzenia danych jest Instytut Meteorologii i Gospodarki Wodnej – Państwowy Instytut Badawczy. Dane Instytutu Meteorologii i Gospodarki Wodnej – Państwowego Instytutu Badawczego zostały przetworzone.

Dane źródłowe można odnaleźć na stronie https://dane.imgw.pl